createdAt,value
2022-10-19T00:01:23.417Z,20.40
2022-10-19T00:03:54.566Z,20.30
2022-10-19T00:06:33.890Z,20.20
2022-10-19T00:09:08.325Z,20.20
2022-10-19T00:11:39.689Z,20.30
2022-10-19T00:14:09.130Z,20.30
2022-10-19T00:16:39.292Z,20.30
2022-10-19T00:19:12.673Z,20.30
2022-10-19T00:21:41.618Z,20.20
2022-10-19T00:24:10.461Z,20.20
2022-10-19T00:26:38.954Z,20.10
2022-10-19T00:29:08.970Z,20.10
2022-10-19T00:31:37.522Z,20.10
2022-10-19T00:34:06.026Z,20.10
2022-10-19T00:36:37.082Z,20.10
2022-10-19T00:39:08.303Z,20.00
2022-10-19T00:41:38.253Z,20.00
2022-10-19T00:44:12.675Z,20.00
2022-10-19T00:46:49.497Z,19.80
2022-10-19T00:49:26.973Z,19.70
2022-10-19T00:52:02.765Z,19.50
2022-10-19T00:54:34.378Z,19.30
2022-10-19T00:57:04.617Z,19.00
2022-10-19T00:59:33.949Z,19.10
2022-10-19T01:02:04.806Z,18.70
2022-10-19T01:04:36.277Z,18.60
2022-10-19T01:07:08.806Z,18.60
2022-10-19T01:09:37.216Z,18.30
2022-10-19T01:12:27.274Z,18.30
2022-10-19T01:19:04.012Z,18.00
2022-10-19T01:21:51.640Z,17.90
2022-10-19T01:24:29.305Z,17.60
2022-10-19T01:27:23.137Z,17.50
2022-10-19T01:30:08.189Z,17.50
2022-10-19T01:32:49.347Z,17.40
2022-10-19T01:35:26.918Z,17.30
2022-10-19T01:37:59.657Z,17.10
2022-10-19T01:40:43.713Z,17.00
2022-10-19T01:43:15.277Z,16.90
2022-10-19T01:45:52.587Z,16.70
2022-10-19T01:48:29.971Z,16.70
2022-10-19T01:51:33.046Z,16.60
2022-10-19T01:54:06.910Z,16.60
2022-10-19T01:56:36.953Z,16.50
2022-10-19T01:59:08.152Z,16.40
2022-10-19T02:01:39.862Z,16.30
2022-10-19T02:04:08.933Z,16.20
2022-10-19T02:06:37.798Z,16.10
2022-10-19T02:09:06.252Z,16.00
2022-10-19T02:11:35.626Z,16.00
2022-10-19T02:14:12.669Z,16.00
2022-10-19T02:17:04.138Z,15.90
2022-10-19T02:19:33.668Z,15.80
2022-10-19T02:22:02.409Z,15.80
2022-10-19T02:24:30.827Z,15.70
2022-10-19T02:27:01.450Z,15.70
2022-10-19T02:29:30.237Z,15.60
2022-10-19T02:31:58.733Z,15.60
2022-10-19T02:34:27.466Z,15.50
2022-10-19T02:36:56.554Z,15.50
2022-10-19T02:39:25.553Z,15.50
2022-10-19T02:42:05.177Z,15.50
2022-10-19T02:45:19.954Z,15.50
2022-10-19T02:48:02.457Z,15.40
2022-10-19T02:50:31.135Z,15.40
2022-10-19T02:53:02.439Z,15.30
2022-10-19T02:55:32.486Z,15.20
2022-10-19T02:58:00.904Z,15.10
2022-10-19T03:00:29.257Z,15.10
2022-10-19T03:02:57.751Z,15.20
2022-10-19T03:05:26.345Z,15.00
2022-10-19T03:07:54.773Z,15.00
2022-10-19T03:10:23.477Z,15.00
2022-10-19T03:12:52.452Z,15.00
2022-10-19T03:15:21.477Z,14.90
2022-10-19T03:17:53.434Z,14.90
2022-10-19T03:20:21.928Z,14.80
2022-10-19T03:22:51.342Z,14.80
2022-10-19T03:25:20.269Z,14.80
2022-10-19T03:27:48.692Z,14.80
2022-10-19T03:30:17.171Z,14.70
2022-10-19T03:32:45.764Z,14.70
2022-10-19T03:35:14.244Z,14.60
2022-10-19T03:37:42.660Z,14.60
2022-10-19T03:40:11.887Z,14.60
2022-10-19T03:42:40.261Z,14.60
2022-10-19T03:45:09.148Z,14.60
2022-10-19T03:47:37.603Z,14.50
2022-10-19T03:50:06.946Z,14.50
2022-10-19T03:52:35.474Z,14.60
2022-10-19T03:55:05.042Z,14.40
2022-10-19T03:57:33.625Z,14.50
2022-10-19T04:00:03.353Z,14.50
2022-10-19T04:02:32.404Z,14.50
2022-10-19T04:05:00.789Z,14.40
2022-10-19T04:07:29.290Z,14.40
2022-10-19T04:09:57.868Z,14.50
2022-10-19T04:12:26.285Z,14.40
2022-10-19T04:14:57.329Z,14.30
2022-10-19T04:17:26.825Z,14.30
2022-10-19T04:19:55.182Z,14.30
2022-10-19T04:22:23.550Z,14.20
2022-10-19T04:24:52.630Z,14.20
2022-10-19T04:27:21.157Z,14.20
2022-10-19T04:29:49.509Z,14.20
2022-10-19T04:32:17.921Z,14.20
2022-10-19T04:34:46.311Z,14.20
2022-10-19T04:37:14.705Z,14.10
2022-10-19T04:39:44.285Z,14.10
2022-10-19T04:42:12.654Z,14.10
2022-10-19T04:44:41.114Z,14.00
2022-10-19T04:47:10.151Z,14.00
2022-10-19T04:49:38.536Z,14.00
2022-10-19T04:52:06.899Z,13.90
2022-10-19T04:54:35.283Z,13.90
2022-10-19T04:57:03.684Z,13.90
2022-10-19T04:59:32.018Z,13.90
2022-10-19T05:02:00.878Z,13.80
2022-10-19T05:04:29.218Z,13.80
2022-10-19T05:06:57.766Z,13.90
2022-10-19T05:09:26.435Z,13.90
2022-10-19T05:11:54.799Z,13.90
2022-10-19T05:14:23.306Z,13.80
2022-10-19T05:16:51.760Z,13.80
2022-10-19T05:19:20.222Z,13.70
2022-10-19T05:21:48.598Z,13.70
2022-10-19T05:24:17.100Z,13.70
2022-10-19T05:26:45.686Z,13.60
2022-10-19T05:29:15.461Z,13.60
2022-10-19T05:31:44.189Z,13.60
2022-10-19T05:34:12.547Z,13.60
2022-10-19T05:36:42.010Z,13.60
2022-10-19T05:39:18.039Z,13.60
2022-10-19T05:41:47.778Z,13.50
2022-10-19T05:44:19.093Z,13.50
2022-10-19T05:46:48.322Z,13.50
2022-10-19T05:49:18.721Z,13.50
2022-10-19T05:51:47.742Z,13.40
2022-10-19T05:54:16.693Z,13.30
2022-10-19T05:56:45.475Z,13.30
2022-10-19T05:59:20.554Z,13.20
2022-10-19T06:01:49.654Z,13.10
2022-10-19T06:06:51.518Z,13.20
2022-10-19T06:09:20.229Z,13.10
2022-10-19T06:11:49.647Z,13.00
2022-10-19T06:14:18.277Z,12.90
2022-10-19T06:16:49.376Z,12.90
2022-10-19T06:19:17.817Z,12.80
2022-10-19T06:21:47.368Z,12.80
2022-10-19T06:24:15.794Z,12.80
2022-10-19T06:26:44.352Z,12.90
2022-10-19T06:29:12.837Z,12.90
2022-10-19T06:31:41.167Z,12.90
2022-10-19T06:34:09.696Z,12.90
2022-10-19T06:36:38.184Z,12.90
2022-10-19T06:39:06.597Z,12.90
2022-10-19T06:41:35.471Z,12.90
2022-10-19T06:44:04.383Z,12.80
2022-10-19T06:46:33.442Z,12.90
2022-10-19T06:49:03.188Z,12.60
2022-10-19T06:51:35.963Z,12.60
2022-10-19T06:54:04.557Z,12.60
2022-10-19T06:56:33.030Z,12.50
2022-10-19T06:59:01.624Z,12.50
2022-10-19T07:01:30.328Z,12.50
2022-10-19T07:03:58.737Z,12.40
2022-10-19T07:06:29.189Z,12.40
2022-10-19T07:08:57.541Z,12.40
2022-10-19T07:11:25.945Z,12.40
2022-10-19T07:13:55.113Z,12.40
2022-10-19T07:16:24.342Z,12.40
2022-10-19T07:18:54.620Z,12.30
2022-10-19T07:21:24.741Z,12.40
2022-10-19T07:23:53.310Z,12.40
2022-10-19T07:26:31.433Z,12.30
2022-10-19T07:28:59.834Z,12.20
2022-10-19T07:31:30.211Z,12.10
2022-10-19T07:34:01.018Z,12.20
2022-10-19T07:36:31.253Z,12.10
2022-10-19T07:39:00.022Z,12.00
2022-10-19T07:41:28.748Z,11.90
2022-10-19T07:43:58.633Z,11.90
2022-10-19T07:46:37.855Z,12.00
2022-10-19T07:49:10.713Z,11.90
2022-10-19T07:51:40.455Z,11.90
2022-10-19T07:54:09.089Z,12.00
2022-10-19T07:56:38.303Z,11.90
2022-10-19T07:59:06.932Z,11.90
2022-10-19T08:01:41.763Z,11.90
2022-10-19T08:06:58.812Z,11.70
2022-10-19T08:09:51.515Z,11.70
2022-10-19T08:12:15.929Z,11.60
2022-10-19T08:14:44.504Z,11.70
2022-10-19T08:17:17.837Z,11.70
2022-10-19T08:19:47.934Z,11.60
2022-10-19T08:22:16.356Z,11.60
2022-10-19T08:24:44.759Z,11.50
2022-10-19T08:27:13.263Z,11.60
2022-10-19T08:29:41.642Z,11.60
2022-10-19T08:32:10.113Z,11.60
2022-10-19T08:34:38.520Z,11.50
2022-10-19T08:37:14.963Z,11.50
2022-10-19T08:39:54.608Z,11.50
2022-10-19T08:43:00.018Z,11.50
2022-10-19T08:45:44.119Z,11.50
2022-10-19T08:48:29.334Z,11.60
2022-10-19T08:50:59.701Z,11.60
2022-10-19T08:53:46.748Z,11.70
2022-10-19T08:56:52.754Z,11.60
2022-10-19T08:59:43.982Z,11.50
2022-10-19T09:02:37.207Z,11.40
2022-10-19T09:05:23.691Z,11.30
2022-10-19T09:07:54.973Z,11.20
2022-10-19T09:10:31.117Z,11.10
2022-10-19T09:13:00.955Z,11.10
2022-10-19T09:15:39.817Z,11.20
2022-10-19T09:18:15.043Z,11.10
2022-10-19T09:20:47.365Z,11.00
2022-10-19T09:23:27.662Z,10.90
2022-10-19T09:25:58.588Z,10.90
2022-10-19T09:28:48.401Z,11.00
2022-10-19T09:31:43.571Z,11.00
2022-10-19T09:34:41.626Z,10.90
2022-10-19T09:37:14.291Z,10.90
2022-10-19T09:39:52.383Z,10.80
2022-10-19T09:42:23.809Z,10.70
2022-10-19T09:44:55.486Z,10.70
2022-10-19T09:47:43.317Z,10.70
2022-10-19T09:50:20.909Z,10.60
2022-10-19T09:52:59.541Z,10.50
2022-10-19T09:55:44.408Z,10.40
2022-10-19T09:58:15.794Z,10.60
2022-10-19T10:00:51.472Z,10.60
2022-10-19T10:03:30.253Z,10.50
2022-10-19T10:06:03.347Z,10.70
2022-10-19T10:08:35.758Z,10.60
2022-10-19T10:11:40.574Z,10.70
2022-10-19T10:14:37.106Z,10.70
2022-10-19T10:17:37.833Z,10.90
2022-10-19T10:20:19.281Z,11.00
2022-10-19T10:23:03.252Z,11.00
2022-10-19T10:25:34.925Z,11.10
2022-10-19T10:28:24.260Z,11.30
2022-10-19T10:31:01.637Z,11.20
2022-10-19T10:33:44.366Z,11.30
2022-10-19T10:36:14.253Z,11.30
2022-10-19T10:38:50.138Z,11.30
2022-10-19T10:41:23.926Z,11.30
2022-10-19T10:44:07.550Z,11.30
2022-10-19T10:46:43.622Z,11.20
2022-10-19T10:49:25.304Z,11.10
2022-10-19T10:52:01.220Z,11.00
2022-10-19T10:54:32.394Z,11.00
2022-10-19T10:57:19.249Z,11.00
2022-10-19T11:00:14.488Z,10.90
2022-10-19T11:03:16.016Z,10.90
2022-10-19T11:06:06.261Z,10.90
2022-10-19T11:08:37.026Z,10.90
2022-10-19T11:11:23.966Z,10.90
2022-10-19T11:14:22.151Z,10.90
2022-10-19T11:16:53.420Z,10.90
2022-10-19T11:19:34.114Z,10.80
2022-10-19T11:22:12.050Z,10.70
2022-10-19T11:24:52.318Z,10.90
2022-10-19T11:27:43.026Z,10.70
2022-10-19T11:30:22.656Z,10.60
2022-10-19T11:33:14.359Z,10.70
2022-10-19T11:35:54.854Z,10.70
2022-10-19T11:38:44.848Z,10.50
2022-10-19T11:41:19.041Z,10.60
2022-10-19T11:44:16.943Z,10.50
2022-10-19T11:47:18.770Z,10.60
2022-10-19T11:50:04.509Z,10.40
2022-10-19T11:52:55.970Z,10.40
2022-10-19T11:55:49.532Z,10.60
2022-10-19T11:58:17.847Z,10.40
2022-10-19T12:00:56.735Z,10.30
2022-10-19T12:03:37.027Z,10.30
2022-10-19T12:06:10.166Z,10.30
2022-10-19T12:08:56.251Z,10.30
2022-10-19T12:11:39.555Z,10.30
2022-10-19T12:14:17.496Z,10.30
2022-10-19T12:16:50.881Z,10.20
2022-10-19T12:19:33.926Z,10.10
2022-10-19T12:22:06.318Z,10.20
2022-10-19T12:24:35.574Z,10.20
2022-10-19T12:27:05.570Z,10.10
2022-10-19T12:29:41.831Z,10.00
2022-10-19T12:32:15.595Z,10.00
2022-10-19T12:35:04.193Z,10.00
2022-10-19T12:37:37.135Z,9.90
2022-10-19T12:40:25.278Z,10.00
2022-10-19T12:43:30.556Z,10.00
2022-10-19T12:46:11.034Z,9.90
2022-10-19T12:48:40.116Z,9.80
2022-10-19T12:51:14.089Z,9.80
2022-10-19T12:53:49.713Z,9.90
2022-10-19T12:56:26.531Z,9.90
2022-10-19T12:59:02.185Z,9.90
2022-10-19T13:01:45.122Z,9.80
2022-10-19T13:04:19.001Z,9.80
2022-10-19T13:06:51.271Z,9.80
2022-10-19T13:09:43.255Z,9.80
2022-10-19T13:12:21.776Z,9.80
2022-10-19T13:14:53.497Z,9.70
2022-10-19T13:17:44.586Z,9.70
2022-10-19T13:20:15.849Z,9.70
2022-10-19T13:22:49.747Z,9.60
2022-10-19T13:25:21.998Z,9.80
2022-10-19T13:27:52.170Z,9.60
2022-10-19T13:30:47.353Z,9.80
2022-10-19T13:33:31.200Z,9.80
2022-10-19T13:36:05.110Z,9.60
2022-10-19T13:41:17.805Z,9.70
2022-10-19T13:44:19.076Z,9.70
2022-10-19T13:46:50.442Z,9.70
2022-10-19T13:49:49.614Z,9.70
2022-10-19T13:52:36.907Z,9.60
2022-10-19T13:55:14.558Z,9.60
2022-10-19T13:58:07.374Z,9.50
2022-10-19T14:00:46.755Z,9.60
2022-10-19T14:03:27.001Z,9.60
2022-10-19T14:06:05.787Z,9.70
2022-10-19T14:09:06.369Z,9.70
2022-10-19T14:11:43.655Z,9.80
2022-10-19T14:14:18.592Z,9.70
2022-10-19T14:16:56.086Z,9.60
2022-10-19T14:19:30.623Z,9.50
2022-10-19T14:22:18.382Z,9.40
2022-10-19T14:24:46.774Z,9.40
2022-10-19T14:27:28.094Z,9.50
2022-10-19T14:29:56.566Z,9.60
2022-10-19T14:32:30.282Z,9.60
2022-10-19T14:35:07.183Z,9.60
2022-10-19T14:37:37.840Z,9.50
2022-10-19T14:40:26.822Z,9.50
2022-10-19T14:42:58.051Z,9.50
2022-10-19T14:45:28.337Z,9.50
2022-10-19T14:48:02.369Z,9.60
2022-10-19T14:50:49.135Z,9.50
2022-10-19T14:53:32.958Z,9.60
2022-10-19T14:56:21.076Z,9.50
2022-10-19T14:59:04.910Z,9.40
2022-10-19T15:01:33.512Z,9.50
2022-10-19T15:04:01.941Z,9.50
2022-10-19T15:06:33.861Z,9.60
2022-10-19T15:09:12.248Z,9.50
2022-10-19T15:11:50.630Z,9.70
2022-10-19T15:14:31.549Z,9.70
2022-10-19T15:17:02.466Z,9.60
2022-10-19T15:19:36.967Z,9.70
2022-10-19T15:22:38.027Z,9.90
2022-10-19T15:25:09.474Z,9.80
2022-10-19T15:27:50.878Z,9.80
2022-10-19T15:30:19.180Z,9.90
2022-10-19T15:33:14.914Z,10.00
2022-10-19T15:35:45.582Z,10.20
2022-10-19T15:38:24.231Z,10.40
2022-10-19T15:41:01.465Z,10.60
2022-10-19T15:43:35.584Z,10.70
2022-10-19T15:46:21.175Z,10.90
2022-10-19T15:48:55.494Z,11.10
2022-10-19T15:51:27.315Z,11.30
2022-10-19T15:54:01.343Z,11.30
2022-10-19T15:56:32.379Z,11.50
2022-10-19T15:59:02.662Z,11.40
2022-10-19T16:01:34.381Z,11.50
2022-10-19T16:04:03.091Z,11.70
2022-10-19T16:06:34.616Z,11.70
2022-10-19T16:09:03.442Z,11.70
2022-10-19T16:11:32.923Z,11.80
2022-10-19T16:14:01.366Z,12.00
2022-10-19T16:16:32.762Z,12.20
2022-10-19T16:19:02.197Z,12.20
2022-10-19T16:21:33.851Z,12.30
2022-10-19T16:24:02.523Z,12.20
2022-10-19T16:26:32.850Z,12.40
2022-10-19T16:29:02.226Z,12.40
2022-10-19T16:31:30.733Z,12.60
2022-10-19T16:33:59.335Z,12.70
2022-10-19T16:36:27.755Z,12.80
2022-10-19T16:38:56.151Z,12.80
2022-10-19T16:41:24.856Z,12.90
2022-10-19T16:43:57.161Z,12.90
2022-10-19T16:46:26.416Z,13.10
2022-10-19T16:48:54.866Z,13.00
2022-10-19T16:51:42.985Z,13.00
2022-10-19T16:54:13.149Z,13.40
2022-10-19T16:56:46.173Z,13.70
2022-10-19T16:59:17.449Z,13.60
2022-10-19T17:01:47.206Z,13.50
2022-10-19T17:04:18.135Z,13.60
2022-10-19T17:06:46.501Z,13.80
2022-10-19T17:09:41.373Z,13.90
2022-10-19T17:12:03.781Z,13.80
2022-10-19T17:14:32.362Z,14.10
2022-10-19T17:17:00.909Z,14.10
2022-10-19T17:19:29.267Z,14.20
2022-10-19T17:21:59.861Z,14.40
2022-10-19T17:24:29.438Z,14.40
2022-10-19T17:26:57.907Z,14.40
2022-10-19T17:29:26.629Z,14.50
2022-10-19T17:31:55.032Z,14.50
2022-10-19T17:34:23.888Z,14.40
2022-10-19T17:36:52.313Z,14.50
2022-10-19T17:39:27.173Z,14.50
2022-10-19T17:42:02.363Z,14.50
2022-10-19T17:44:32.079Z,14.40
2022-10-19T17:47:01.306Z,14.40
2022-10-19T17:49:30.696Z,14.50
2022-10-19T17:51:59.315Z,14.40
2022-10-19T17:54:27.830Z,14.70
2022-10-19T17:56:56.447Z,14.80
2022-10-19T17:59:30.538Z,15.10
2022-10-19T18:02:05.203Z,15.30
2022-10-19T18:04:33.675Z,15.50
2022-10-19T18:07:02.027Z,15.70
2022-10-19T18:09:31.701Z,15.60
2022-10-19T18:12:03.476Z,15.50
2022-10-19T18:14:34.794Z,15.40
2022-10-19T18:17:03.152Z,15.40
2022-10-19T18:19:31.483Z,15.50
2022-10-19T18:21:59.970Z,15.60
2022-10-19T18:24:28.400Z,15.70
2022-10-19T18:26:56.780Z,16.00
2022-10-19T18:29:26.906Z,16.10
2022-10-19T18:31:55.881Z,16.10
2022-10-19T18:34:26.565Z,16.10
2022-10-19T18:36:55.857Z,16.20
2022-10-19T18:39:24.403Z,16.50
2022-10-19T18:41:55.924Z,16.60
2022-10-19T18:44:27.348Z,16.70
2022-10-19T18:46:58.475Z,16.80
2022-10-19T18:49:27.213Z,17.10
2022-10-19T18:51:56.090Z,17.00
2022-10-19T18:54:27.009Z,16.90
2022-10-19T18:56:57.141Z,16.90
2022-10-19T19:01:56.553Z,16.50
2022-10-19T19:04:26.184Z,16.50
2022-10-19T19:06:55.340Z,16.70
2022-10-19T19:09:33.242Z,16.80
2022-10-19T19:12:02.906Z,16.90
2022-10-19T19:14:32.481Z,17.00
2022-10-19T19:17:03.933Z,17.00
2022-10-19T19:19:33.516Z,17.20
2022-10-19T19:22:07.928Z,17.20
2022-10-19T19:24:39.219Z,17.40
2022-10-19T19:27:08.452Z,17.60
2022-10-19T19:29:37.578Z,17.60
2022-10-19T19:32:06.987Z,17.60
2022-10-19T19:34:36.638Z,17.70
2022-10-19T19:37:10.475Z,17.90
2022-10-19T19:39:43.290Z,18.60
2022-10-19T19:42:12.938Z,18.90
2022-10-19T19:44:43.451Z,18.80
2022-10-19T19:47:13.063Z,18.90
2022-10-19T19:49:44.135Z,19.00
2022-10-19T19:52:13.446Z,19.20
2022-10-19T19:54:43.099Z,19.50
2022-10-19T19:57:13.390Z,19.40
2022-10-19T19:59:42.999Z,19.50
2022-10-19T20:02:14.296Z,19.30
2022-10-19T20:04:43.879Z,19.40
2022-10-19T20:07:19.535Z,19.50
2022-10-19T20:09:58.141Z,19.60
2022-10-19T20:12:30.714Z,19.60
2022-10-19T20:14:59.946Z,19.40
2022-10-19T20:17:29.751Z,19.30
2022-10-19T20:20:01.461Z,19.10
2022-10-19T20:22:31.633Z,19.20
2022-10-19T20:25:04.745Z,19.10
2022-10-19T20:27:38.130Z,19.30
2022-10-19T20:30:08.412Z,19.40
2022-10-19T20:32:38.519Z,19.50
2022-10-19T20:35:10.130Z,19.50
2022-10-19T20:37:39.879Z,19.50
2022-10-19T20:40:11.150Z,19.50
2022-10-19T20:42:41.323Z,19.60
2022-10-19T20:45:14.659Z,19.80
2022-10-19T20:47:43.769Z,19.80
2022-10-19T20:50:14.286Z,19.90
2022-10-19T20:52:44.233Z,19.90
2022-10-19T20:55:13.835Z,20.00
2022-10-19T20:57:42.995Z,20.00
2022-10-19T21:00:12.688Z,20.00
2022-10-19T21:02:41.771Z,20.00
2022-10-19T21:05:11.692Z,20.20
2022-10-19T21:07:41.072Z,20.10
2022-10-19T21:10:10.474Z,20.20
2022-10-19T21:12:43.053Z,20.20
2022-10-19T21:15:13.664Z,20.00
2022-10-19T21:17:42.730Z,20.20
2022-10-19T21:20:12.497Z,20.20
2022-10-19T21:22:42.636Z,20.30
2022-10-19T21:25:13.215Z,20.20
2022-10-19T21:27:42.700Z,20.40
2022-10-19T21:30:12.804Z,20.40
2022-10-19T21:32:42.433Z,20.40
2022-10-19T21:35:11.639Z,20.50
2022-10-19T21:37:41.230Z,20.60
2022-10-19T21:40:14.291Z,20.50
2022-10-19T21:42:43.617Z,20.60
2022-10-19T21:45:29.150Z,20.50
2022-10-19T21:48:01.461Z,20.60
2022-10-19T21:50:34.512Z,20.70
2022-10-19T21:53:04.091Z,20.70
2022-10-19T21:55:36.622Z,20.90
2022-10-19T21:58:06.438Z,20.80
2022-10-19T22:00:35.954Z,20.90
2022-10-19T22:03:08.167Z,20.90
2022-10-19T22:05:38.792Z,20.90
2022-10-19T22:08:08.654Z,21.00
2022-10-19T22:10:40.030Z,21.10
2022-10-19T22:13:10.378Z,21.20
2022-10-19T22:15:40.901Z,21.20
2022-10-19T22:18:10.946Z,21.20
2022-10-19T22:20:41.612Z,21.30
2022-10-19T22:23:12.997Z,21.30
2022-10-19T22:25:42.061Z,21.40
2022-10-19T22:28:11.086Z,21.40
2022-10-19T22:30:41.821Z,21.40
2022-10-19T22:33:10.867Z,21.50
2022-10-19T22:35:41.505Z,21.50
2022-10-19T22:38:10.665Z,21.50
2022-10-19T22:40:39.687Z,21.50
2022-10-19T22:43:08.368Z,21.60
2022-10-19T22:45:37.693Z,21.60
2022-10-19T22:48:06.462Z,21.60
2022-10-19T22:50:35.090Z,21.70
2022-10-19T22:53:04.219Z,21.60
2022-10-19T22:55:33.139Z,21.60
2022-10-19T22:58:02.184Z,21.60
2022-10-19T23:00:32.050Z,21.70
2022-10-19T23:03:01.132Z,21.70
2022-10-19T23:05:31.233Z,21.60
2022-10-19T23:08:00.226Z,21.60
2022-10-19T23:10:28.896Z,21.70
2022-10-19T23:12:58.210Z,21.70
2022-10-19T23:15:29.211Z,21.80
2022-10-19T23:18:02.137Z,21.70
2022-10-19T23:20:31.404Z,21.80
2022-10-19T23:23:00.694Z,21.80
2022-10-19T23:25:30.086Z,21.80
2022-10-19T23:27:59.469Z,21.90
2022-10-19T23:30:28.525Z,21.70
2022-10-19T23:32:57.584Z,21.80
2022-10-19T23:35:26.815Z,21.70
2022-10-19T23:37:55.586Z,21.70
2022-10-19T23:40:25.082Z,21.70
2022-10-19T23:42:54.250Z,21.70
2022-10-19T23:45:23.392Z,21.70
2022-10-19T23:47:54.351Z,21.70
2022-10-19T23:50:26.246Z,21.70
2022-10-19T23:52:56.706Z,21.60
2022-10-19T23:55:28.814Z,21.60
2022-10-19T23:57:58.333Z,21.50
